Time;durP1;ratioP1;P1;durP2;ratioP2;P2;SDS_P1;SDS_P2;PMS_P1;PMS_P2;Temp;Humidity;BMP_temperature;BMP_pressure;BME280_temperature;BME280_humidity;BME280_pressure;Samples;Min_cycle;Max_cycle;Signal;HPM_P1;HPM_P2
2022/09/18 00:00:58;;;;;;;;;;;;;;;10.11;100.00;99010.42;1431203;91;20368;-82
2022/09/18 00:03:24;;;;;;;;;;;;;;;10.10;100.00;99012.77;1419876;91;20364;-85
2022/09/18 00:05:50;;;;;;;;;;;;;;;10.00;100.00;99014.00;1423187;91;20324;-84
2022/09/18 00:08:16;;;;;;;;;;;;;;;10.02;100.00;99023.91;1427172;91;20309;-84
2022/09/18 00:10:45;;;;;;;;;;;;;;;9.97;100.00;99031.54;1414231;91;20296;-84
2022/09/18 00:13:13;;;;;;;;;;;;;;;9.98;100.00;99029.20;1428987;91;20801;-84
2022/09/18 00:15:40;;;;;;;;;;;;;;;9.97;100.00;99030.22;1418537;90;20555;-84
2022/09/18 00:18:06;;;;;;;;;;;;;;;10.03;100.00;99036.11;1437918;90;20330;-84
2022/09/18 00:20:33;;;;;;;;;;;;;;;10.03;100.00;99032.14;1425288;90;20809;-85
2022/09/18 00:22:59;;;;;;;;;;;;;;;10.07;100.00;99032.09;1415636;91;20324;-84
2022/09/18 00:25:25;;;;;;;;;;;;;;;10.08;100.00;99020.55;1423496;91;20296;-85
2022/09/18 00:27:51;;;;;;;;;;;;;;;10.07;100.00;99037.39;1423673;91;20261;-84
2022/09/18 00:30:17;;;;;;;;;;;;;;;10.09;100.00;99031.42;1438897;90;20280;-84
2022/09/18 00:32:43;;;;;;;;;;;;;;;10.07;100.00;99038.70;1413614;91;20289;-84
2022/09/18 00:35:09;;;;;;;;;;;;;;;10.08;100.00;99035.08;1448635;89;20822;-82
2022/09/18 00:37:34;;;;;;;;;;;;;;;10.09;100.00;99034.89;1432558;91;20316;-84
2022/09/18 00:40:01;;;;;;;;;;;;;;;10.11;100.00;99032.08;1438191;90;20844;-84
2022/09/18 00:42:27;;;;;;;;;;;;;;;10.12;100.00;99022.63;1439746;90;20369;-84
2022/09/18 00:44:52;;;;;;;;;;;;;;;10.16;100.00;99028.41;1430883;91;20328;-82
2022/09/18 00:47:28;;;;;;;;;;;;;;;10.21;100.00;99027.85;1446422;90;20315;-84
2022/09/18 00:50:03;;;;;;;;;;;;;;;10.24;100.00;99030.98;1454622;89;20322;-84
2022/09/18 00:52:33;;;;;;;;;;;;;;;10.28;100.00;99030.97;1430206;90;20458;-84
2022/09/18 00:55:10;;;;;;;;;;;;;;;10.34;100.00;99031.56;1407416;90;20838;-83
2022/09/18 00:57:40;;;;;;;;;;;;;;;10.40;100.00;99036.64;1430452;91;20309;-84
2022/09/18 01:00:13;;;;;;;;;;;;;;;10.45;100.00;99036.92;1436113;91;20483;-85
2022/09/18 01:02:35;;;;;;;;;;;;;;;10.46;100.00;99033.27;1432096;91;20414;-84
2022/09/18 01:05:01;;;;;;;;;;;;;;;10.48;100.00;99030.45;1430395;91;20287;-86
2022/09/18 01:07:34;;;;;;;;;;;;;;;10.48;100.00;99029.95;1443227;90;20382;-84
2022/09/18 01:10:22;;;;;;;;;;;;;;;10.49;100.00;99026.80;1429366;90;20295;-85
2022/09/18 01:13:10;;;;;;;;;;;;;;;10.43;100.00;99036.78;1441842;91;20489;-84
2022/09/18 01:16:01;;;;;;;;;;;;;;;10.46;100.00;99037.73;1449387;90;20400;-84
2022/09/18 01:18:58;;;;;;;;;;;;;;;10.41;100.00;99036.12;1432563;90;20355;-87
2022/09/18 01:21:27;;;;;;;;;;;;;;;10.43;100.00;99039.42;1427092;90;20310;-86
2022/09/18 01:24:06;;;;;;;;;;;;;;;10.33;100.00;99040.52;1445226;90;20259;-86
2022/09/18 01:26:54;;;;;;;;;;;;;;;10.37;100.00;99039.14;1440035;89;20394;-87
2022/09/18 01:29:27;;;;;;;;;;;;;;;10.37;100.00;99039.64;1430416;90;20921;-86
2022/09/18 01:32:09;;;;;;;;;;;;;;;10.38;100.00;99043.41;1451292;90;20406;-88
2022/09/18 01:34:47;;;;;;;;;;;;;;;10.42;100.00;99045.22;1445950;89;20280;-87
2022/09/18 01:37:23;;;;;;;;;;;;;;;10.44;100.00;99051.63;1408251;91;20958;-83
2022/09/18 01:39:58;;;;;;;;;;;;;;;10.44;100.00;99048.48;1447680;90;21252;-83
2022/09/18 01:42:26;;;;;;;;;;;;;;;10.47;100.00;99047.30;1429362;90;21096;-84
2022/09/18 01:44:55;;;;;;;;;;;;;;;10.51;100.00;99055.22;1442895;90;20293;-87
2022/09/18 01:47:23;;;;;;;;;;;;;;;10.55;100.00;99053.84;1434574;91;20302;-86
2022/09/18 01:49:52;;;;;;;;;;;;;;;10.55;100.00;99061.27;1417849;91;20313;-85
2022/09/18 01:52:21;;;;;;;;;;;;;;;10.53;100.00;99061.97;1427273;90;20892;-84
2022/09/18 01:54:49;;;;;;;;;;;;;;;10.55;100.00;99067.88;1448428;90;20303;-85
2022/09/18 01:57:34;;;;;;;;;;;;;;;10.49;100.00;99063.32;1440191;90;20370;-86
2022/09/18 02:00:09;;;;;;;;;;;;;;;10.55;100.00;99064.42;1447499;90;20729;-86
2022/09/18 02:02:57;;;;;;;;;;;;;;;10.50;100.00;99070.75;1434781;90;20341;-85
2022/09/18 02:05:32;;;;;;;;;;;;;;;10.46;100.00;99069.48;1443598;90;20385;-82
2022/09/18 02:08:08;;;;;;;;;;;;;;;10.52;100.00;99071.40;1446825;90;20303;-85
2022/09/18 02:10:37;;;;;;;;;;;;;;;10.56;100.00;99077.99;1385802;94;20945;-84
2022/09/18 02:13:05;;;;;;;;;;;;;;;10.54;100.00;99083.95;1413201;92;20303;-86
2022/09/18 02:15:33;;;;;;;;;;;;;;;10.59;100.00;99082.92;1411991;92;20485;-84
2022/09/18 02:18:01;;;;;;;;;;;;;;;10.60;100.00;99088.52;1412835;92;20468;-86
2022/09/18 02:20:30;;;;;;;;;;;;;;;10.59;100.00;99089.53;1400162;92;20269;-84
2022/09/18 02:23:00;;;;;;;;;;;;;;;10.56;100.00;99090.71;1423017;92;20382;-86
2022/09/18 02:25:35;;;;;;;;;;;;;;;10.54;100.00;99094.54;1407198;92;21293;-82
2022/09/18 02:28:01;;;;;;;;;;;;;;;10.53;100.00;99095.52;1414784;91;20780;-81
2022/09/18 02:30:28;;;;;;;;;;;;;;;10.49;100.00;99096.89;1397559;91;20247;-79
2022/09/18 02:32:55;;;;;;;;;;;;;;;10.51;100.00;99101.00;1425209;91;21057;-82
2022/09/18 02:35:22;;;;;;;;;;;;;;;10.51;100.00;99097.55;1439991;91;20383;-82
2022/09/18 02:38:06;;;;;;;;;;;;;;;10.54;100.00;99105.12;1434061;91;20353;-80
2022/09/18 02:40:39;;;;;;;;;;;;;;;10.51;100.00;99113.41;1401162;93;20356;-81
2022/09/18 02:43:08;;;;;;;;;;;;;;;10.51;100.00;99113.41;1440135;90;20426;-80
2022/09/18 02:45:59;;;;;;;;;;;;;;;10.52;100.00;99112.41;1443232;90;20448;-81
2022/09/18 02:48:49;;;;;;;;;;;;;;;10.53;100.00;99121.97;1417897;90;20407;-84
2022/09/18 02:51:21;;;;;;;;;;;;;;;10.54;100.00;99114.38;1431097;90;21023;-83
2022/09/18 02:53:57;;;;;;;;;;;;;;;10.57;100.00;99124.60;1428152;92;20852;-82
2022/09/18 02:56:49;;;;;;;;;;;;;;;10.53;100.00;99122.82;1438855;91;20302;-82
2022/09/18 02:59:19;;;;;;;;;;;;;;;10.51;100.00;99121.35;1439816;91;20302;-82
2022/09/18 03:01:45;;;;;;;;;;;;;;;10.46;100.00;99129.81;1429654;91;20912;-82
2022/09/18 03:04:13;;;;;;;;;;;;;;;10.44;100.00;99123.05;1437439;91;20422;-84
2022/09/18 03:06:40;;;;;;;;;;;;;;;10.43;100.00;99130.67;1435917;91;20281;-83
2022/09/18 03:09:06;;;;;;;;;;;;;;;10.42;100.00;99125.89;1410504;92;20315;-81
2022/09/18 03:11:32;;;;;;;;;;;;;;;10.45;100.00;99124.72;1416861;91;20302;-81
2022/09/18 03:13:58;;;;;;;;;;;;;;;10.45;100.00;99135.30;1436185;91;20325;-82
2022/09/18 03:16:24;;;;;;;;;;;;;;;10.47;100.00;99130.63;1427771;91;20296;-83
2022/09/18 03:18:50;;;;;;;;;;;;;;;10.46;100.00;99128.99;1436366;91;20721;-84
2022/09/18 03:21:15;;;;;;;;;;;;;;;10.52;100.00;99134.89;1445568;90;20354;-81
2022/09/18 03:23:41;;;;;;;;;;;;;;;10.53;100.00;99135.20;1429758;91;20417;-84
2022/09/18 03:26:07;;;;;;;;;;;;;;;10.55;100.00;99126.59;1421217;91;20943;-83
2022/09/18 03:28:33;;;;;;;;;;;;;;;10.55;100.00;99130.56;1427022;91;20310;-83
2022/09/18 03:30:59;;;;;;;;;;;;;;;10.59;100.00;99135.83;1426945;92;20370;-83
2022/09/18 03:33:24;;;;;;;;;;;;;;;10.58;100.00;99130.20;1436752;90;20415;-84
2022/09/18 03:35:50;;;;;;;;;;;;;;;10.60;100.00;99130.86;1427135;90;20933;-83
2022/09/18 03:38:16;;;;;;;;;;;;;;;10.59;100.00;99134.52;1426159;91;20251;-83
2022/09/18 03:40:43;;;;;;;;;;;;;;;10.58;100.00;99132.84;1434450;91;20309;-84
2022/09/18 03:43:10;;;;;;;;;;;;;;;10.54;100.00;99131.57;1431972;91;20332;-82
2022/09/18 03:45:35;;;;;;;;;;;;;;;10.54;100.00;99129.75;1436233;91;20357;-84
2022/09/18 03:48:02;;;;;;;;;;;;;;;10.53;100.00;99138.69;1438067;91;20295;-83
2022/09/18 03:50:28;;;;;;;;;;;;;;;10.53;100.00;99135.20;1433626;91;20421;-86
2022/09/18 03:52:54;;;;;;;;;;;;;;;10.51;100.00;99135.91;1439172;91;20376;-87
2022/09/18 03:55:22;;;;;;;;;;;;;;;10.48;100.00;99144.20;1434936;91;20384;-82
2022/09/18 03:57:49;;;;;;;;;;;;;;;10.47;100.00;99150.47;1430056;91;20794;-85
2022/09/18 04:00:16;;;;;;;;;;;;;;;10.50;100.00;99154.08;1442923;91;20338;-84
2022/09/18 04:02:42;;;;;;;;;;;;;;;10.49;100.00;99160.38;1438600;91;20377;-79
2022/09/18 04:05:08;;;;;;;;;;;;;;;10.47;100.00;99153.95;1439131;91;20273;-85
2022/09/18 04:07:34;;;;;;;;;;;;;;;10.50;100.00;99154.08;1440706;91;20353;-84
2022/09/18 04:10:00;;;;;;;;;;;;;;;10.46;100.00;99158.91;1425686;91;20303;-83
2022/09/18 04:12:27;;;;;;;;;;;;;;;10.47;100.00;99160.57;1433820;91;20402;-85
2022/09/18 04:14:54;;;;;;;;;;;;;;;10.48;100.00;99162.71;1436002;91;21012;-85
2022/09/18 04:17:20;;;;;;;;;;;;;;;10.49;100.00;99159.88;1420389;91;20272;-85
2022/09/18 04:19:46;;;;;;;;;;;;;;;10.49;100.00;99163.84;1419438;91;20316;-82
2022/09/18 04:22:11;;;;;;;;;;;;;;;10.47;100.00;99170.30;1436775;91;20870;-83
2022/09/18 04:24:38;;;;;;;;;;;;;;;10.48;100.00;99173.30;1443827;90;20299;-83
2022/09/18 04:27:05;;;;;;;;;;;;;;;10.49;100.00;99178.89;1450772;89;20359;-84
2022/09/18 04:29:31;;;;;;;;;;;;;;;10.52;100.00;99182.51;1442915;89;20399;-82
2022/09/18 04:31:58;;;;;;;;;;;;;;;10.51;100.00;99186.16;1447804;89;20396;-84
2022/09/18 04:34:23;;;;;;;;;;;;;;;10.51;100.00;99191.45;1446227;90;20390;-83
2022/09/18 04:36:49;;;;;;;;;;;;;;;10.49;100.00;99195.59;1447383;90;20903;-82
2022/09/18 04:39:15;;;;;;;;;;;;;;;10.52;100.00;99195.73;1443995;89;20404;-83
2022/09/18 04:41:44;;;;;;;;;;;;;;;10.52;100.00;99197.05;1448854;90;20278;-83
2022/09/18 04:44:09;;;;;;;;;;;;;;;10.51;100.00;99204.68;1447968;90;20517;-83
2022/09/18 04:46:34;;;;;;;;;;;;;;;10.51;100.00;99206.82;1455005;90;20412;-84
2022/09/18 04:49:00;;;;;;;;;;;;;;;10.47;100.00;99208.19;1455366;90;20300;-83
2022/09/18 04:51:26;;;;;;;;;;;;;;;10.48;100.00;99210.33;1450640;89;20322;-84
2022/09/18 04:53:52;;;;;;;;;;;;;;;10.46;100.00;99211.81;1449224;90;20292;-83
2022/09/18 04:56:18;;;;;;;;;;;;;;;10.46;100.00;99211.81;1442676;90;20307;-85
2022/09/18 04:58:44;;;;;;;;;;;;;;;10.47;100.00;99219.24;1428952;91;20259;-83
2022/09/18 05:01:10;;;;;;;;;;;;;;;10.46;100.00;99218.92;1432640;91;20346;-82
2022/09/18 05:03:36;;;;;;;;;;;;;;;10.50;100.00;99221.53;1415334;91;20867;-82
2022/09/18 05:06:02;;;;;;;;;;;;;;;10.53;100.00;99219.86;1440746;91;20300;-83
2022/09/18 05:08:28;;;;;;;;;;;;;;;10.58;100.00;99222.80;1436305;91;20213;-81
2022/09/18 05:10:55;;;;;;;;;;;;;;;10.56;100.00;99222.99;1440091;91;20331;-83
2022/09/18 05:13:22;;;;;;;;;;;;;;;10.61;100.00;99222.44;1432327;91;20934;-82
2022/09/18 05:15:50;;;;;;;;;;;;;;;10.63;100.00;99228.39;1440142;91;20376;-85
2022/09/18 05:18:16;;;;;;;;;;;;;;;10.66;100.00;99233.33;1435281;91;20443;-83
2022/09/18 05:20:42;;;;;;;;;;;;;;;10.70;100.00;99234.60;1436448;91;20301;-84
2022/09/18 05:23:07;;;;;;;;;;;;;;;10.73;100.00;99236.92;1433317;91;20881;-84
2022/09/18 05:25:33;;;;;;;;;;;;;;;10.77;100.00;99237.38;1436421;91;20548;-83
2022/09/18 05:28:00;;;;;;;;;;;;;;;10.78;100.00;99246.45;1440960;90;20808;-81
2022/09/18 05:30:27;;;;;;;;;;;;;;;10.79;100.00;99252.09;1414979;91;20340;-81
2022/09/18 05:33:01;;;;;;;;;;;;;;;10.81;100.00;99259.84;1419613;92;20407;-81
2022/09/18 05:35:30;;;;;;;;;;;;;;;10.82;100.00;99258.34;1425865;91;20302;-80
2022/09/18 05:37:56;;;;;;;;;;;;;;;10.80;100.00;99256.38;1426202;91;20288;-80
2022/09/18 05:40:25;;;;;;;;;;;;;;;10.79;100.00;99258.70;1420975;91;20304;-80
2022/09/18 05:42:52;;;;;;;;;;;;;;;10.79;100.00;99257.39;1426647;91;20332;-80
2022/09/18 05:45:18;;;;;;;;;;;;;;;10.81;100.00;99265.12;1435462;91;20295;-82
2022/09/18 05:47:53;;;;;;;;;;;;;;;10.80;100.00;99265.63;1428387;91;20354;-82
2022/09/18 05:50:20;;;;;;;;;;;;;;;10.81;100.00;99273.89;1422834;91;20317;-82
2022/09/18 05:52:46;;;;;;;;;;;;;;;10.80;100.00;99268.28;1433212;91;20281;-82
2022/09/18 05:55:12;;;;;;;;;;;;;;;10.82;100.00;99268.94;1422438;91;20356;-81
2022/09/18 05:57:38;;;;;;;;;;;;;;;10.88;100.00;99271.88;1427712;91;20317;-81
2022/09/18 06:00:05;;;;;;;;;;;;;;;10.89;100.00;99273.52;1423911;91;20331;-81
2022/09/18 06:02:31;;;;;;;;;;;;;;;10.91;100.00;99279.47;1430177;91;20347;-81
2022/09/18 06:05:00;;;;;;;;;;;;;;;10.91;100.00;99279.47;1432978;91;20559;-79
2022/09/18 06:07:26;;;;;;;;;;;;;;;10.99;100.00;99282.02;1421510;91;20310;-80
2022/09/18 06:09:52;;;;;;;;;;;;;;;11.03;100.00;99282.00;1410776;93;20817;-80
2022/09/18 06:12:18;;;;;;;;;;;;;;;11.01;100.00;99285.33;1426268;91;20354;-80
2022/09/18 06:14:44;;;;;;;;;;;;;;;11.05;100.00;99286.63;1429471;91;20333;-79
2022/09/18 06:17:10;;;;;;;;;;;;;;;11.08;100.00;99291.57;1428812;91;20602;-81
2022/09/18 06:19:35;;;;;;;;;;;;;;;11.12;100.00;99292.84;1426488;91;20294;-80
2022/09/18 06:22:01;;;;;;;;;;;;;;;11.10;100.00;99301.45;1422348;91;20802;-81
2022/09/18 06:24:27;;;;;;;;;;;;;;;11.16;100.00;99303.39;1432969;91;20483;-81
2022/09/18 06:26:53;;;;;;;;;;;;;;;11.17;100.00;99301.08;1430105;91;20875;-81
2022/09/18 06:29:19;;;;;;;;;;;;;;;11.20;100.00;99304.70;1428795;91;20317;-82
2022/09/18 06:31:45;;;;;;;;;;;;;;;11.19;100.00;99314.98;1427786;91;20303;-81
2022/09/18 06:34:11;;;;;;;;;;;;;;;11.18;100.00;99313.31;1424794;91;20280;-80
2022/09/18 06:36:37;;;;;;;;;;;;;;;11.16;100.00;99315.81;1431092;91;21030;-81
2022/09/18 06:39:02;;;;;;;;;;;;;;;11.21;100.00;99321.41;1420420;91;20347;-82
2022/09/18 06:41:28;;;;;;;;;;;;;;;11.23;100.00;99330.82;1429212;91;20723;-82
2022/09/18 06:43:54;;;;;;;;;;;;;;;11.30;100.00;99337.03;1436100;91;20405;-82
2022/09/18 06:46:20;;;;;;;;;;;;;;;11.30;100.00;99337.03;1429596;91;20407;-82
2022/09/18 06:48:48;;;;;;;;;;;;;;;11.36;100.00;99339.98;1431381;91;20362;-80
2022/09/18 06:51:13;;;;;;;;;;;;;;;11.41;100.00;99345.56;1428194;91;20377;-81
2022/09/18 06:53:39;;;;;;;;;;;;;;;11.45;100.00;99346.37;1428424;91;20273;-80
2022/09/18 06:56:05;;;;;;;;;;;;;;;11.49;100.00;99349.47;1424823;91;20280;-82
2022/09/18 06:58:31;;;;;;;;;;;;;;;11.51;100.00;99347.48;1430750;91;20259;-81
2022/09/18 07:00:59;;;;;;;;;;;;;;;11.57;100.00;99358.68;1429615;91;20280;-81
2022/09/18 07:03:25;;;;;;;;;;;;;;;11.65;100.00;99357.28;1426554;91;20347;-82
2022/09/18 07:05:51;;;;;;;;;;;;;;;11.70;100.00;99365.48;1433441;91;20809;-82
2022/09/18 07:08:17;;;;;;;;;;;;;;;11.72;100.00;99362.16;1429983;91;20318;-80
2022/09/18 07:10:43;;;;;;;;;;;;;;;11.80;100.00;99367.90;1427911;91;20956;-82
2022/09/18 07:13:09;;;;;;;;;;;;;;;11.94;100.00;99376.91;1430178;91;20309;-80
2022/09/18 07:15:35;;;;;;;;;;;;;;;12.04;100.00;99378.77;1429589;91;20883;-81
2022/09/18 07:18:03;;;;;;;;;;;;;;;12.14;100.00;99380.66;1432440;91;20451;-82
2022/09/18 07:20:29;;;;;;;;;;;;;;;12.19;100.00;99388.87;1428419;91;20392;-79
2022/09/18 07:22:59;;;;;;;;;;;;;;;12.25;100.00;99390.47;1431530;91;20439;-80
2022/09/18 07:25:26;;;;;;;;;;;;;;;12.31;100.00;99387.08;1432508;90;20406;-81
2022/09/18 07:27:52;;;;;;;;;;;;;;;12.35;100.00;99387.05;1432537;91;20369;-81
2022/09/18 07:30:18;;;;;;;;;;;;;;;12.37;100.00;99394.30;1430525;91;20325;-82
2022/09/18 07:32:45;;;;;;;;;;;;;;;12.45;100.00;99396.05;1428292;91;20317;-82
2022/09/18 07:35:12;;;;;;;;;;;;;;;12.47;100.00;99397.51;1427400;91;20251;-83
2022/09/18 07:37:38;;;;;;;;;;;;;;;12.49;100.00;99392.84;1425012;91;20281;-81
2022/09/18 07:40:07;;;;;;;;;;;;;;;12.46;98.43;99400.33;1426814;91;20273;-81
2022/09/18 07:42:33;;;;;;;;;;;;;;;12.49;99.05;99405.30;1425970;91;20903;-81
2022/09/18 07:44:59;;;;;;;;;;;;;;;12.51;99.96;99412.55;1426745;91;20272;-82
2022/09/18 07:47:27;;;;;;;;;;;;;;;12.51;100.00;99417.34;1423317;91;20601;-80
2022/09/18 07:49:53;;;;;;;;;;;;;;;12.54;100.00;99413.00;1430800;91;20417;-79
2022/09/18 07:52:20;;;;;;;;;;;;;;;12.64;100.00;99425.48;1430500;91;20325;-78
2022/09/18 07:54:46;;;;;;;;;;;;;;;12.72;99.85;99425.08;1429874;90;20313;-79
2022/09/18 07:57:12;;;;;;;;;;;;;;;12.72;98.00;99429.06;1419565;91;20304;-79
2022/09/18 07:59:38;;;;;;;;;;;;;;;12.68;98.67;99430.42;1415244;92;20363;-79
2022/09/18 08:02:05;;;;;;;;;;;;;;;12.79;98.24;99436.59;1426220;91;20280;-78
2022/09/18 08:04:30;;;;;;;;;;;;;;;12.83;98.77;99433.87;1439307;91;20340;-79
2022/09/18 08:07:02;;;;;;;;;;;;;;;12.94;96.87;99435.23;1425485;91;20289;-79
2022/09/18 08:09:24;;;;;;;;;;;;;;;12.83;91.28;99434.72;1422442;91;20815;-79
2022/09/18 08:11:51;;;;;;;;;;;;;;;12.91;95.05;99444.90;1428229;91;20414;-79
2022/09/18 08:14:17;;;;;;;;;;;;;;;12.87;93.76;99436.48;1432185;91;20332;-80
2022/09/18 08:16:43;;;;;;;;;;;;;;;12.87;94.45;99439.14;1430188;91;20728;-80
2022/09/18 08:19:09;;;;;;;;;;;;;;;12.80;91.69;99439.55;1425529;91;20288;-77
2022/09/18 08:21:35;;;;;;;;;;;;;;;12.79;89.95;99443.23;1424430;91;20296;-79
2022/09/18 08:24:01;;;;;;;;;;;;;;;12.81;90.63;99439.89;1414240;91;20764;-78
2022/09/18 08:26:27;;;;;;;;;;;;;;;12.77;89.27;99441.25;1423390;91;20422;-79
2022/09/18 08:28:53;;;;;;;;;;;;;;;12.65;88.71;99449.69;1433356;91;20259;-79
2022/09/18 08:31:19;;;;;;;;;;;;;;;12.67;87.52;99444.20;1426610;91;20846;-78
2022/09/18 08:33:45;;;;;;;;;;;;;;;12.82;90.13;99450.82;1425389;91;20280;-80
2022/09/18 08:36:10;;;;;;;;;;;;;;;12.84;87.00;99446.16;1432003;91;20275;-78
2022/09/18 08:38:36;;;;;;;;;;;;;;;12.89;90.81;99450.41;1437809;91;20815;-79
2022/09/18 08:41:14;;;;;;;;;;;;;;;12.98;90.20;99450.61;1432677;91;20228;-80
2022/09/18 08:44:04;;;;;;;;;;;;;;;13.10;91.33;99454.42;1427904;91;20809;-80
2022/09/18 08:46:36;;;;;;;;;;;;;;;13.19;89.75;99451.66;1432311;91;20743;-79
2022/09/18 08:49:23;;;;;;;;;;;;;;;13.28;90.95;99456.67;1434652;91;20324;-79
2022/09/18 08:52:02;;;;;;;;;;;;;;;13.39;86.78;99452.70;1428614;91;20385;-80
2022/09/18 08:54:50;;;;;;;;;;;;;;;13.54;82.21;99454.78;1431950;91;20451;-80
2022/09/18 08:57:25;;;;;;;;;;;;;;;13.69;88.29;99456.03;1427357;91;20340;-80
2022/09/18 08:59:57;;;;;;;;;;;;;;;13.77;83.16;99459.89;1436229;91;20743;-79
2022/09/18 09:02:27;;;;;;;;;;;;;;;13.78;81.15;99456.72;1408695;91;20310;-80
2022/09/18 09:04:55;;;;;;;;;;;;;;;13.81;82.79;99459.03;1429340;91;20296;-82
2022/09/18 09:07:35;;;;;;;;;;;;;;;13.85;82.90;99451.48;1431290;91;20832;-82
2022/09/18 09:10:07;;;;;;;;;;;;;;;13.86;81.74;99467.23;1418720;91;20374;-80
2022/09/18 09:12:58;;;;;;;;;;;;;;;13.85;82.65;99468.26;1428393;91;20764;-80
2022/09/18 09:15:30;;;;;;;;;;;;;;;13.89;81.37;99453.55;1422193;91;20318;-81
2022/09/18 09:18:18;;;;;;;;;;;;;;;14.05;80.81;99460.95;1431626;91;20243;-82
2022/09/18 09:20:52;;;;;;;;;;;;;;;14.19;80.51;99464.02;1409433;91;20297;-79
2022/09/18 09:23:39;;;;;;;;;;;;;;;14.19;75.39;99461.36;1420149;91;20310;-80
2022/09/18 09:26:14;;;;;;;;;;;;;;;14.19;77.33;99469.34;1438901;91;20265;-82
2022/09/18 09:28:52;;;;;;;;;;;;;;;13.99;78.28;99472.67;1449173;90;20447;-82
2022/09/18 09:31:21;;;;;;;;;;;;;;;13.84;78.96;99475.93;1442035;90;20393;-82
2022/09/18 09:33:56;;;;;;;;;;;;;;;13.68;78.76;99478.84;1448370;89;20385;-81
2022/09/18 09:36:26;;;;;;;;;;;;;;;13.93;81.28;99474.77;1445008;90;20794;-82
2022/09/18 09:39:02;;;;;;;;;;;;;;;14.30;75.47;99475.45;1441229;89;20878;-82
2022/09/18 09:41:43;;;;;;;;;;;;;;;14.67;77.56;99482.73;1428071;90;20447;-82
2022/09/18 09:44:16;;;;;;;;;;;;;;;14.84;75.19;99488.05;1429897;91;20307;-80
2022/09/18 09:46:49;;;;;;;;;;;;;;;15.04;72.93;99484.65;1415340;91;20421;-81
2022/09/18 09:49:26;;;;;;;;;;;;;;;15.14;71.45;99488.29;1429632;91;20294;-82
2022/09/18 09:52:08;;;;;;;;;;;;;;;14.96;67.48;99495.47;1431523;91;20419;-82
2022/09/18 09:54:35;;;;;;;;;;;;;;;15.05;68.81;99507.63;1401922;92;20435;-82
2022/09/18 09:57:35;;;;;;;;;;;;;;;15.01;66.52;99499.70;1435373;91;20309;-82
2022/09/18 10:00:12;;;;;;;;;;;;;;;15.03;66.23;99487.83;1439071;91;20302;-83
2022/09/18 10:02:57;;;;;;;;;;;;;;;15.22;64.56;99496.93;1437357;91;20891;-82
2022/09/18 10:05:30;;;;;;;;;;;;;;;15.60;64.14;99491.06;1438692;90;20293;-81
2022/09/18 10:08:03;;;;;;;;;;;;;;;15.65;62.36;99499.77;1447979;90;20340;-83
2022/09/18 10:10:36;;;;;;;;;;;;;;;15.66;62.29;99504.10;1423175;91;20415;-82
2022/09/18 10:13:20;;;;;;;;;;;;;;;15.58;64.13;99502.44;1432864;90;20290;-81
2022/09/18 10:15:48;;;;;;;;;;;;;;;15.49;65.47;99501.80;1423576;91;20229;-81
2022/09/18 10:18:27;;;;;;;;;;;;;;;15.44;66.80;99500.77;1422281;91;20887;-83
2022/09/18 10:20:56;;;;;;;;;;;;;;;15.35;61.48;99499.61;1427230;91;20258;-82
2022/09/18 10:23:31;;;;;;;;;;;;;;;15.40;59.56;99499.54;1418713;91;20914;-83
2022/09/18 10:25:59;;;;;;;;;;;;;;;15.32;61.83;99502.69;1427460;92;20406;-84
2022/09/18 10:28:28;;;;;;;;;;;;;;;15.34;61.56;99495.31;1423028;91;20310;-84
2022/09/18 10:31:03;;;;;;;;;;;;;;;15.37;56.19;99495.95;1438442;90;20420;-84
2022/09/18 10:33:32;;;;;;;;;;;;;;;15.38;58.52;99500.24;1422104;90;20319;-85
2022/09/18 10:36:29;;;;;;;;;;;;;;;15.54;62.83;99509.22;1415899;92;20296;-83
2022/09/18 10:38:57;;;;;;;;;;;;;;;15.84;61.94;99495.00;1427508;91;20266;-83
2022/09/18 10:41:36;;;;;;;;;;;;;;;16.08;56.00;99498.90;1421695;90;20823;-83
2022/09/18 10:44:15;;;;;;;;;;;;;;;16.02;53.61;99495.72;1433422;90;20850;-82
2022/09/18 10:46:54;;;;;;;;;;;;;;;15.95;53.61;99502.41;1447806;90;20405;-83
2022/09/18 10:49:26;;;;;;;;;;;;;;;15.84;55.95;99505.67;1443326;90;20301;-83
2022/09/18 10:52:31;;;;;;;;;;;;;;;15.62;56.00;99505.00;1444287;90;20363;-82
2022/09/18 10:55:00;;;;;;;;;;;;;;;15.58;54.16;99507.77;1451346;89;20950;-82
2022/09/18 10:57:29;;;;;;;;;;;;;;;15.45;55.62;99507.25;1416922;90;20247;-84
2022/09/18 10:59:55;;;;;;;;;;;;;;;15.35;55.68;99512.13;1427396;91;20317;-81
2022/09/18 11:02:23;;;;;;;;;;;;;;;15.33;54.92;99508.34;1416248;91;20308;-83
2022/09/18 11:04:49;;;;;;;;;;;;;;;15.24;55.51;99514.03;1438192;91;20250;-82
2022/09/18 11:07:18;;;;;;;;;;;;;;;15.21;55.36;99512.59;1417256;91;20831;-83
2022/09/18 11:09:45;;;;;;;;;;;;;;;15.21;55.03;99512.59;1419035;91;20839;-81
2022/09/18 11:12:18;;;;;;;;;;;;;;;15.26;57.40;99508.82;1448524;90;20348;-81
2022/09/18 11:14:48;;;;;;;;;;;;;;;15.31;55.70;99506.38;1443552;89;20355;-81
2022/09/18 11:17:24;;;;;;;;;;;;;;;15.38;55.67;99508.24;1439687;90;20392;-80
2022/09/18 11:19:52;;;;;;;;;;;;;;;15.32;54.88;99504.02;1421390;91;20295;-82
2022/09/18 11:22:36;;;;;;;;;;;;;;;15.31;54.49;99507.72;1431139;90;20378;-81
2022/09/18 11:25:08;;;;;;;;;;;;;;;15.39;53.87;99511.20;1443200;90;20904;-83
2022/09/18 11:27:52;;;;;;;;;;;;;;;15.47;53.35;99518.51;1438239;89;20317;-82
2022/09/18 11:30:24;;;;;;;;;;;;;;;15.58;53.63;99517.92;1441085;90;20320;-81
2022/09/18 11:32:54;;;;;;;;;;;;;;;15.76;52.06;99497.87;1445038;90;20288;-83
2022/09/18 11:35:21;;;;;;;;;;;;;;;15.88;51.78;99506.09;1449916;90;20333;-83
2022/09/18 11:37:51;;;;;;;;;;;;;;;15.92;53.19;99507.34;1452965;90;20354;-82
2022/09/18 11:40:43;;;;;;;;;;;;;;;15.90;51.70;99510.19;1440040;90;20393;-82
2022/09/18 11:43:18;;;;;;;;;;;;;;;15.85;52.62;99506.50;1426991;90;20678;-82
2022/09/18 11:45:48;;;;;;;;;;;;;;;15.72;52.26;99510.80;1441287;90;20399;-83
2022/09/18 11:48:26;;;;;;;;;;;;;;;15.52;53.58;99512.58;1441567;90;20811;-80
2022/09/18 11:50:58;;;;;;;;;;;;;;;15.30;55.17;99510.56;1447362;90;20444;-83
2022/09/18 11:53:30;;;;;;;;;;;;;;;15.07;55.67;99513.56;1452769;90;20513;-81
2022/09/18 11:56:12;;;;;;;;;;;;;;;14.98;56.16;99516.09;1432622;90;20824;-82
2022/09/18 11:58:44;;;;;;;;;;;;;;;14.89;56.14;99515.44;1417304;92;20467;-80
2022/09/18 12:01:34;;;;;;;;;;;;;;;14.85;58.01;99511.02;1414928;92;20459;-81
2022/09/18 12:04:20;;;;;;;;;;;;;;;14.81;57.73;99517.74;1424297;92;20317;-83
2022/09/18 12:07:02;;;;;;;;;;;;;;;14.84;58.43;99517.86;1445294;90;20307;-83
2022/09/18 12:09:44;;;;;;;;;;;;;;;14.81;59.04;99516.93;1443422;89;20330;-84
2022/09/18 12:12:16;;;;;;;;;;;;;;;14.79;57.92;99507.81;1445279;90;21205;-83
2022/09/18 12:14:48;;;;;;;;;;;;;;;14.74;59.25;99511.58;1452755;90;20310;-88
2022/09/18 12:17:30;;;;;;;;;;;;;;;14.70;59.40;99511.64;1434222;90;20293;-81
2022/09/18 12:19:59;;;;;;;;;;;;;;;14.67;57.77;99509.38;1430389;90;20373;-83
2022/09/18 12:22:29;;;;;;;;;;;;;;;14.66;58.39;99503.74;1494013;90;20473;-83
2022/09/18 12:24:55;;;;;;;;;;;;;;;14.58;57.13;99514.03;1510784;90;20844;-82
2022/09/18 12:27:40;;;;;;;;;;;;;;;14.56;57.67;99516.61;1424076;92;20321;-82
2022/09/18 12:30:16;;;;;;;;;;;;;;;14.59;57.21;99513.55;1449359;90;20390;-82
2022/09/18 12:33:04;;;;;;;;;;;;;;;14.68;56.98;99507.04;1440686;89;20398;-84
2022/09/18 12:35:53;;;;;;;;;;;;;;;15.18;55.62;99512.99;1434471;91;20315;-84
2022/09/18 12:38:46;;;;;;;;;;;;;;;15.67;55.47;99517.73;1406182;91;20310;-83
2022/09/18 12:41:40;;;;;;;;;;;;;;;16.43;55.32;99514.70;1434863;90;20322;-85
2022/09/18 12:44:22;;;;;;;;;;;;;;;16.56;51.30;99516.52;1456983;89;20321;-83
2022/09/18 12:46:57;;;;;;;;;;;;;;;16.59;50.88;99515.58;1412700;91;20391;-82
2022/09/18 12:49:53;;;;;;;;;;;;;;;16.41;50.33;99523.44;1433046;91;20933;-82
2022/09/18 12:52:38;;;;;;;;;;;;;;;16.15;51.03;99514.41;1445785;90;20549;-82
2022/09/18 12:55:07;;;;;;;;;;;;;;;16.14;52.23;99515.45;1446077;90;20345;-84
2022/09/18 12:57:43;;;;;;;;;;;;;;;16.52;52.02;99509.45;1422990;91;20318;-83
2022/09/18 13:00:14;;;;;;;;;;;;;;;16.44;50.53;99508.33;1439463;90;20323;-84